createdAt,value
2022-10-06T00:00:48.478Z,99036.06
2022-10-06T00:03:15.577Z,99032.47
2022-10-06T00:05:46.399Z,99030.25
2022-10-06T00:08:15.478Z,99028.22
2022-10-06T00:10:44.016Z,99019.34
2022-10-06T00:13:10.914Z,99029.50
2022-10-06T00:15:37.864Z,99022.59
2022-10-06T00:18:04.674Z,99035.81
2022-10-06T00:20:31.342Z,99022.94
2022-10-06T00:22:58.368Z,99028.22
2022-10-06T00:25:25.867Z,99032.28
2022-10-06T00:27:53.446Z,99042.16
2022-10-06T00:30:22.876Z,99032.56
2022-10-06T00:32:56.723Z,99048.34
2022-10-06T00:35:25.586Z,99043.53
2022-10-06T00:37:52.940Z,99047.03
2022-10-06T00:40:20.048Z,99049.91
2022-10-06T00:43:01.797Z,99063.78
2022-10-06T00:45:43.251Z,99064.22
2022-10-06T00:48:16.600Z,99065.59
2022-10-06T00:50:43.362Z,99073.44
2022-10-06T00:53:10.204Z,99067.63
2022-10-06T00:55:36.671Z,99069.28
2022-10-06T00:58:04.434Z,99075.94
2022-10-06T01:00:31.057Z,99064.31
2022-10-06T01:03:12.081Z,99071.81
2022-10-06T01:05:46.825Z,99059.50
2022-10-06T01:08:14.378Z,99050.94
2022-10-06T01:10:40.955Z,99071.34
2022-10-06T01:13:08.197Z,99062.56
2022-10-06T01:15:34.844Z,99056.28
2022-10-06T01:18:14.040Z,99062.16
2022-10-06T01:20:54.578Z,99072.50
2022-10-06T01:23:21.565Z,99063.06
2022-10-06T01:25:48.386Z,99064.94
2022-10-06T01:28:15.110Z,99070.19
2022-10-06T01:30:52.016Z,99072.84
2022-10-06T01:33:38.678Z,99073.69
2022-10-06T01:36:05.431Z,99077.56
2022-10-06T01:38:32.639Z,99061.47
2022-10-06T01:40:59.736Z,99070.31
2022-10-06T01:43:26.294Z,99072.88
2022-10-06T01:45:57.033Z,99069.03
2022-10-06T01:48:24.488Z,99074.22
2022-10-06T01:50:51.061Z,99063.69
2022-10-06T01:53:19.115Z,99059.22
2022-10-06T01:55:46.485Z,99066.56
2022-10-06T01:58:13.252Z,99080.16
2022-10-06T02:00:40.044Z,99066.84
2022-10-06T02:03:07.505Z,99060.16
2022-10-06T02:05:35.484Z,99075.53
2022-10-06T02:08:02.865Z,99089.88
2022-10-06T02:10:29.906Z,99085.84
2022-10-06T02:12:57.185Z,99080.81
2022-10-06T02:15:23.753Z,99077.81
2022-10-06T02:17:54.197Z,99088.44
2022-10-06T02:20:21.062Z,99068.28
2022-10-06T02:22:47.532Z,99067.59
2022-10-06T02:25:14.221Z,99090.53
2022-10-06T02:27:40.696Z,99070.03
2022-10-06T02:30:08.559Z,99072.50
2022-10-06T02:32:37.491Z,99078.78
2022-10-06T02:35:04.934Z,99075.59
2022-10-06T02:37:31.598Z,99079.47
2022-10-06T02:39:58.164Z,99090.44
2022-10-06T02:42:24.798Z,99078.78
2022-10-06T02:44:54.025Z,99100.50
2022-10-06T02:47:22.280Z,99057.84
2022-10-06T02:49:48.848Z,99081.31
2022-10-06T02:52:15.555Z,99071.97
2022-10-06T02:54:42.565Z,99058.97
2022-10-06T02:57:09.671Z,99084.94
2022-10-06T02:59:36.602Z,99081.53
2022-10-06T03:02:03.601Z,99085.41
2022-10-06T03:04:30.543Z,99082.09
2022-10-06T03:06:57.753Z,99083.56
2022-10-06T03:09:25.120Z,99097.41
2022-10-06T03:11:54.081Z,99096.09
2022-10-06T03:14:22.101Z,99100.63
2022-10-06T03:16:51.810Z,99108.59
2022-10-06T03:19:18.682Z,99104.28
2022-10-06T03:21:45.290Z,99100.25
2022-10-06T03:24:12.096Z,99099.19
2022-10-06T03:26:41.417Z,99104.81
2022-10-06T03:29:11.457Z,99103.44
2022-10-06T03:31:39.607Z,99114.81
2022-10-06T03:34:07.806Z,99105.28
2022-10-06T03:36:35.928Z,99112.41
2022-10-06T03:39:04.244Z,99108.19
2022-10-06T03:41:33.112Z,99088.88
2022-10-06T03:44:00.158Z,99109.25
2022-10-06T03:46:29.298Z,99118.09
2022-10-06T03:48:57.380Z,99106.91
2022-10-06T03:51:29.947Z,99118.75
2022-10-06T03:53:57.534Z,99107.41
2022-10-06T03:56:30.381Z,99119.38
2022-10-06T03:59:03.983Z,99112.25
2022-10-06T04:01:33.438Z,99128.44
2022-10-06T04:04:01.366Z,99118.91
2022-10-06T04:06:30.280Z,99118.56
2022-10-06T04:08:57.212Z,99113.25
2022-10-06T04:11:28.736Z,99128.94
2022-10-06T04:14:01.070Z,99124.78
2022-10-06T04:16:29.281Z,99132.50
2022-10-06T04:18:57.937Z,99134.50
2022-10-06T04:21:27.765Z,99141.84
2022-10-06T04:23:58.126Z,99144.06
2022-10-06T04:26:27.194Z,99116.88
2022-10-06T04:28:54.475Z,99138.44
2022-10-06T04:31:24.083Z,99126.06
2022-10-06T04:33:53.090Z,99142.69
2022-10-06T04:36:27.910Z,99146.50
2022-10-06T04:39:04.403Z,99146.84
2022-10-06T04:41:36.544Z,99150.88
2022-10-06T04:44:04.401Z,99155.59
2022-10-06T04:46:47.489Z,99140.78
2022-10-06T04:49:19.574Z,99122.59
2022-10-06T04:51:50.340Z,99142.84
2022-10-06T04:54:17.334Z,99144.16
2022-10-06T04:56:43.882Z,99129.84
2022-10-06T04:59:10.544Z,99120.34
2022-10-06T05:01:37.627Z,99145.66
2022-10-06T05:04:06.485Z,99143.66
2022-10-06T05:06:41.371Z,99166.56
2022-10-06T05:09:14.610Z,99157.03
2022-10-06T05:11:41.296Z,99148.75
2022-10-06T05:14:08.058Z,99161.41
2022-10-06T05:16:36.998Z,99145.25
2022-10-06T05:19:03.654Z,99166.94
2022-10-06T05:21:32.221Z,99161.09
2022-10-06T05:24:02.939Z,99169.63
2022-10-06T05:26:31.596Z,99174.97
2022-10-06T05:29:02.026Z,99170.28
2022-10-06T05:31:33.736Z,99178.31
2022-10-06T05:34:00.574Z,99165.47
2022-10-06T05:36:31.870Z,99179.31
2022-10-06T05:39:02.166Z,99173.97
2022-10-06T05:41:33.192Z,99180.16
2022-10-06T05:44:00.423Z,99173.50
2022-10-06T05:46:30.365Z,99173.50
2022-10-06T05:49:03.486Z,99177.00
2022-10-06T05:51:31.992Z,99178.38
2022-10-06T05:54:00.776Z,99181.28
2022-10-06T05:56:31.343Z,99185.56
2022-10-06T05:59:01.517Z,99173.78
2022-10-06T06:01:33.056Z,99187.22
2022-10-06T06:04:05.158Z,99193.75
2022-10-06T06:06:34.852Z,99197.97
2022-10-06T06:09:08.987Z,99188.91
2022-10-06T06:11:37.800Z,99176.84
2022-10-06T06:14:13.685Z,99185.34
2022-10-06T06:16:41.352Z,99195.34
2022-10-06T06:19:09.643Z,99203.72
2022-10-06T06:21:36.400Z,99203.41
2022-10-06T06:24:04.205Z,99174.25
2022-10-06T06:26:39.597Z,99192.69
2022-10-06T06:29:08.056Z,99194.25
2022-10-06T06:31:38.442Z,99197.06
2022-10-06T06:34:06.792Z,99205.44
2022-10-06T06:36:36.874Z,99197.41
2022-10-06T06:39:06.219Z,99208.75
2022-10-06T06:41:37.764Z,99205.06
2022-10-06T06:44:06.805Z,99204.91
2022-10-06T06:46:33.415Z,99203.41
2022-10-06T06:49:06.666Z,99204.75
2022-10-06T06:51:35.443Z,99224.44
2022-10-06T06:54:02.709Z,99199.28
2022-10-06T06:56:35.195Z,99220.47
2022-10-06T06:59:06.602Z,99219.78
2022-10-06T07:01:33.227Z,99200.97
2022-10-06T07:03:59.842Z,99226.97
2022-10-06T07:06:29.521Z,99229.13
2022-10-06T07:09:00.425Z,99234.97
2022-10-06T07:11:35.698Z,99241.53
2022-10-06T07:14:07.733Z,99245.34
2022-10-06T07:16:53.513Z,99235.19
2022-10-06T07:19:40.300Z,99248.06
2022-10-06T07:22:31.305Z,99256.25
2022-10-06T07:25:07.555Z,99252.22
2022-10-06T07:27:46.295Z,99253.22
2022-10-06T07:30:19.245Z,99253.72
2022-10-06T07:32:47.550Z,99262.56
2022-10-06T07:35:16.230Z,99232.91
2022-10-06T07:37:43.257Z,99269.47
2022-10-06T07:40:10.636Z,99272.63
2022-10-06T07:42:49.319Z,99272.06
2022-10-06T07:45:45.004Z,99256.25
2022-10-06T07:48:18.166Z,99250.91
2022-10-06T07:50:47.924Z,99277.09
2022-10-06T07:53:16.178Z,99279.59
2022-10-06T07:55:46.336Z,99281.41
2022-10-06T07:58:15.630Z,99277.19
2022-10-06T08:00:43.361Z,99270.19
2022-10-06T08:03:11.302Z,99273.47
2022-10-06T08:05:39.214Z,99275.63
2022-10-06T08:08:06.464Z,99274.44
2022-10-06T08:10:33.215Z,99280.28
2022-10-06T08:13:01.367Z,99277.25
2022-10-06T08:15:30.945Z,99264.25
2022-10-06T08:18:00.607Z,99271.28
2022-10-06T08:20:30.956Z,99277.81
2022-10-06T08:23:00.651Z,99286.81
2022-10-06T08:25:28.887Z,99291.69
2022-10-06T08:27:55.639Z,99286.47
2022-10-06T08:30:29.350Z,99271.78
2022-10-06T08:32:57.849Z,99292.09
2022-10-06T08:35:24.612Z,99289.75
2022-10-06T08:37:52.243Z,99295.75
2022-10-06T08:40:18.937Z,99268.09
2022-10-06T08:42:51.551Z,99295.75
2022-10-06T08:45:41.297Z,99282.09
2022-10-06T08:48:14.118Z,99308.50
2022-10-06T08:51:13.187Z,99309.88
2022-10-06T08:54:12.863Z,99307.41
2022-10-06T08:57:05.647Z,99310.16
2022-10-06T08:59:35.157Z,99300.69
2022-10-06T09:02:05.719Z,99298.03
2022-10-06T09:04:34.210Z,99316.53
2022-10-06T09:07:15.223Z,99319.91
2022-10-06T09:10:23.255Z,99324.78
2022-10-06T09:13:00.730Z,99299.25
2022-10-06T09:15:36.306Z,99293.59
2022-10-06T09:18:13.384Z,99309.44
2022-10-06T09:20:55.063Z,99329.47
2022-10-06T09:23:40.545Z,99318.78
2022-10-06T09:26:12.739Z,99334.81
2022-10-06T09:28:39.513Z,99312.13
2022-10-06T09:31:40.111Z,99333.28
2022-10-06T09:34:30.760Z,99343.78
2022-10-06T09:37:03.225Z,99340.25
2022-10-06T09:39:36.780Z,99336.91
2022-10-06T09:42:11.582Z,99340.56
2022-10-06T09:44:51.399Z,99344.22
2022-10-06T09:47:33.300Z,99337.31
2022-10-06T09:50:03.527Z,99334.66
2022-10-06T09:52:30.396Z,99317.94
2022-10-06T09:55:15.406Z,99334.25
2022-10-06T09:57:53.352Z,99320.38
2022-10-06T10:00:36.053Z,99326.69
2022-10-06T10:03:13.745Z,99315.63
2022-10-06T10:05:47.960Z,99324.91
2022-10-06T10:08:14.420Z,99330.53
2022-10-06T10:10:41.594Z,99327.53
2022-10-06T10:13:25.620Z,99316.94
2022-10-06T10:15:54.345Z,99329.16
2022-10-06T10:18:30.555Z,99329.06
2022-10-06T10:21:06.243Z,99330.94
2022-10-06T10:23:42.696Z,99332.56
2022-10-06T10:26:37.090Z,99311.22
2022-10-06T10:29:22.702Z,99327.09
2022-10-06T10:32:17.963Z,99332.38
2022-10-06T10:34:56.718Z,99324.50
2022-10-06T10:37:45.319Z,99327.28
2022-10-06T10:40:43.103Z,99326.22
2022-10-06T10:43:26.093Z,99316.53
2022-10-06T10:46:14.097Z,99307.09
2022-10-06T10:48:49.028Z,99311.31
2022-10-06T10:51:23.141Z,99329.00
2022-10-06T10:53:55.161Z,99327.03
2022-10-06T10:56:26.198Z,99313.13
2022-10-06T10:59:00.330Z,99309.06
2022-10-06T11:02:05.138Z,99300.88
2022-10-06T11:04:31.772Z,99306.09
2022-10-06T11:07:23.463Z,99292.50
2022-10-06T11:10:20.741Z,99305.94
2022-10-06T11:13:08.796Z,99310.22
2022-10-06T11:15:47.278Z,99304.03
2022-10-06T11:18:26.363Z,99308.03
2022-10-06T11:21:06.102Z,99282.28
2022-10-06T11:23:35.708Z,99308.44
2022-10-06T11:26:09.834Z,99306.78
2022-10-06T11:28:47.202Z,99305.78
2022-10-06T11:31:30.188Z,99301.16
2022-10-06T11:34:00.597Z,99294.28
2022-10-06T11:36:48.943Z,99306.09
2022-10-06T11:39:20.548Z,99299.25
2022-10-06T11:42:15.715Z,99305.78
2022-10-06T11:44:56.088Z,99308.16
2022-10-06T11:47:49.035Z,99296.28
2022-10-06T11:50:34.006Z,99303.00
2022-10-06T11:53:00.911Z,99304.25
2022-10-06T11:55:31.284Z,99299.78
2022-10-06T11:58:37.360Z,99296.94
2022-10-06T12:01:02.202Z,99281.78
2022-10-06T12:03:36.829Z,99292.34
2022-10-06T12:06:03.441Z,99271.91
2022-10-06T12:08:40.849Z,99274.84
2022-10-06T12:11:39.477Z,99287.59
2022-10-06T12:17:19.560Z,99271.00
2022-10-06T12:19:49.179Z,99283.25
2022-10-06T12:22:31.684Z,99259.00
2022-10-06T12:25:01.495Z,99277.47
2022-10-06T12:27:53.112Z,99272.91
2022-10-06T12:30:22.575Z,99266.91
2022-10-06T12:33:15.962Z,99261.13
2022-10-06T12:35:43.643Z,99247.25
2022-10-06T12:39:06.927Z,99253.69
2022-10-06T12:42:17.279Z,99251.38
2022-10-06T12:44:51.621Z,99253.00
2022-10-06T12:47:37.919Z,99237.31
2022-10-06T12:50:25.448Z,99240.47
2022-10-06T12:53:14.307Z,99230.34
2022-10-06T12:55:49.141Z,99234.34
2022-10-06T12:58:34.438Z,99221.13
2022-10-06T13:01:12.292Z,99226.41
2022-10-06T13:03:39.745Z,99216.91
2022-10-06T13:06:08.693Z,99204.09
2022-10-06T13:08:37.629Z,99205.75
2022-10-06T13:11:19.708Z,99199.75
2022-10-06T13:13:48.904Z,99202.03
2022-10-06T13:16:20.525Z,99191.25
2022-10-06T13:18:48.336Z,99191.34
2022-10-06T13:21:16.439Z,99189.72
2022-10-06T13:23:45.351Z,99194.41
2022-10-06T13:26:24.404Z,99195.16
2022-10-06T13:28:55.336Z,99183.81
2022-10-06T13:31:33.631Z,99196.44
2022-10-06T13:34:03.817Z,99193.31
2022-10-06T13:36:38.780Z,99170.91
2022-10-06T13:39:07.106Z,99194.50
2022-10-06T13:41:43.553Z,99173.41
2022-10-06T13:44:15.665Z,99193.94
2022-10-06T13:46:49.236Z,99193.31
2022-10-06T13:49:31.760Z,99199.72
2022-10-06T13:52:03.088Z,99202.66
2022-10-06T13:54:50.663Z,99185.66
2022-10-06T13:57:36.721Z,99191.22
2022-10-06T14:00:17.196Z,99189.38
2022-10-06T14:03:06.133Z,99182.53
2022-10-06T14:05:45.989Z,99186.25
2022-10-06T14:08:12.460Z,99180.84
2022-10-06T14:11:20.727Z,99185.59
2022-10-06T14:13:53.756Z,99175.97
2022-10-06T14:16:29.592Z,99170.16
2022-10-06T14:19:06.421Z,99171.16
2022-10-06T14:21:45.704Z,99185.25
2022-10-06T14:24:15.259Z,99181.31
2022-10-06T14:26:45.792Z,99155.78
2022-10-06T14:29:16.306Z,99167.13
2022-10-06T14:31:44.501Z,99170.06
2022-10-06T14:34:15.329Z,99179.31
2022-10-06T14:36:44.110Z,99184.88
2022-10-06T14:39:13.087Z,99179.25
2022-10-06T14:41:39.616Z,99161.81
2022-10-06T14:44:12.379Z,99174.44
2022-10-06T14:46:41.471Z,99159.84
2022-10-06T14:49:10.600Z,99181.88
2022-10-06T14:51:38.691Z,99153.34
2022-10-06T14:54:10.379Z,99177.22
2022-10-06T14:56:39.098Z,99179.28
2022-10-06T14:59:08.386Z,99181.50
2022-10-06T15:01:40.518Z,99148.53
2022-10-06T15:04:14.503Z,99171.13
2022-10-06T15:07:00.407Z,99173.09
2022-10-06T15:09:30.474Z,99171.22
2022-10-06T15:11:57.862Z,99165.34
2022-10-06T15:14:24.455Z,99151.22
2022-10-06T15:16:51.845Z,99149.06
2022-10-06T15:19:18.496Z,99135.34
2022-10-06T15:21:45.503Z,99169.91
2022-10-06T15:24:17.567Z,99165.31
2022-10-06T15:27:03.547Z,99167.75
2022-10-06T15:29:30.673Z,99156.16
2022-10-06T15:31:58.738Z,99143.03
2022-10-06T15:34:27.330Z,99140.69
2022-10-06T15:36:55.471Z,99157.03
2022-10-06T15:39:27.134Z,99158.66
2022-10-06T15:41:54.537Z,99157.41
2022-10-06T15:44:21.785Z,99148.91
2022-10-06T15:46:49.295Z,99153.78
2022-10-06T15:49:20.593Z,99146.13
2022-10-06T15:51:49.736Z,99128.06
2022-10-06T15:54:20.659Z,99137.84
2022-10-06T15:56:48.606Z,99140.47
2022-10-06T15:59:16.205Z,99117.31
2022-10-06T16:01:47.498Z,99138.28
2022-10-06T16:04:26.338Z,99133.88
2022-10-06T16:06:56.762Z,99137.31
2022-10-06T16:09:28.820Z,99132.97
2022-10-06T16:11:56.863Z,99118.72
2022-10-06T16:14:24.610Z,99118.44
2022-10-06T16:16:51.989Z,99118.34
2022-10-06T16:19:19.440Z,99124.22
2022-10-06T16:21:48.641Z,99128.38
2022-10-06T16:24:18.240Z,99124.84
2022-10-06T16:26:48.571Z,99117.84
2022-10-06T16:29:16.663Z,99124.47
2022-10-06T16:31:43.590Z,99123.66
2022-10-06T16:34:13.842Z,99093.38
2022-10-06T16:36:40.990Z,99096.13
2022-10-06T16:39:13.192Z,99113.28
2022-10-06T16:41:42.368Z,99105.06
2022-10-06T16:44:11.872Z,99097.19
2022-10-06T16:46:38.631Z,99090.59
2022-10-06T16:49:08.485Z,99097.06
2022-10-06T16:51:40.144Z,99115.91
2022-10-06T16:54:09.382Z,99112.97
2022-10-06T16:56:47.697Z,99123.25
2022-10-06T16:59:19.768Z,99122.56
2022-10-06T17:01:47.562Z,99124.06
2022-10-06T17:04:17.121Z,99117.22
2022-10-06T17:06:54.657Z,99120.47
2022-10-06T17:09:23.467Z,99123.06
2022-10-06T17:11:52.611Z,99125.00
2022-10-06T17:14:21.378Z,99120.38
2022-10-06T17:16:50.668Z,99119.06
2022-10-06T17:19:18.569Z,99126.28
2022-10-06T17:21:48.125Z,99121.47
2022-10-06T17:24:17.744Z,99130.97
2022-10-06T17:26:47.231Z,99133.41
2022-10-06T17:29:19.235Z,99137.56
2022-10-06T17:31:47.542Z,99139.03
2022-10-06T17:34:20.410Z,99137.94
2022-10-06T17:36:50.612Z,99144.59
2022-10-06T17:39:22.105Z,99145.69
2022-10-06T17:41:51.453Z,99145.69
2022-10-06T17:44:24.058Z,99151.03
2022-10-06T17:46:52.984Z,99148.72
2022-10-06T17:49:21.428Z,99141.91
2022-10-06T17:51:49.216Z,99125.66
2022-10-06T17:54:20.115Z,99146.97
2022-10-06T17:56:49.136Z,99136.84
2022-10-06T17:59:23.082Z,99131.75
2022-10-06T18:01:51.775Z,99138.59
2022-10-06T18:04:19.742Z,99131.66
2022-10-06T18:06:47.174Z,99135.00
2022-10-06T18:09:15.745Z,99140.91
2022-10-06T18:11:48.654Z,99127.13
2022-10-06T18:14:20.466Z,99133.94
2022-10-06T18:16:59.096Z,99120.19
2022-10-06T18:19:31.362Z,99130.81
2022-10-06T18:22:03.807Z,99116.03
2022-10-06T18:24:31.460Z,99134.41
2022-10-06T18:27:00.151Z,99123.75
2022-10-06T18:29:31.268Z,99118.56
2022-10-06T18:32:09.467Z,99119.97
2022-10-06T18:37:32.982Z,99117.75
2022-10-06T18:39:59.700Z,99112.63
2022-10-06T18:42:26.944Z,99122.63
2022-10-06T18:45:12.807Z,99125.28
2022-10-06T18:47:57.987Z,99121.19
2022-10-06T18:50:24.572Z,99121.91
2022-10-06T18:52:51.135Z,99119.50
2022-10-06T18:55:17.721Z,99107.84
2022-10-06T18:57:45.269Z,99110.00
2022-10-06T19:00:12.972Z,99108.31
2022-10-06T19:02:39.660Z,99110.00
2022-10-06T19:05:06.614Z,99124.59
2022-10-06T19:07:33.663Z,99119.97
2022-10-06T19:10:00.176Z,99124.78
2022-10-06T19:12:26.705Z,99112.16
2022-10-06T19:14:53.210Z,99119.59
2022-10-06T19:17:22.815Z,99107.06
2022-10-06T19:19:51.238Z,99116.75
2022-10-06T19:22:24.594Z,99115.09
2022-10-06T19:24:51.619Z,99123.78
2022-10-06T19:27:24.177Z,99102.97
2022-10-06T19:29:54.414Z,99119.97
2022-10-06T19:32:27.205Z,99089.66
2022-10-06T19:34:58.833Z,99114.44
2022-10-06T19:37:28.807Z,99110.75
2022-10-06T19:39:58.140Z,99116.94
2022-10-06T19:42:46.953Z,99120.63
2022-10-06T19:45:18.499Z,99129.13
2022-10-06T19:47:46.183Z,99115.09
2022-10-06T19:50:17.165Z,99126.47
2022-10-06T19:52:46.588Z,99135.81
2022-10-06T19:55:18.214Z,99122.41
2022-10-06T19:57:45.664Z,99128.06
2022-10-06T20:00:14.818Z,99119.09
2022-10-06T20:02:44.305Z,99112.41
2022-10-06T20:05:17.252Z,99127.53
2022-10-06T20:07:47.548Z,99122.81
2022-10-06T20:10:15.174Z,99112.56
2022-10-06T20:12:44.093Z,99119.03
2022-10-06T20:15:14.276Z,99119.50
2022-10-06T20:17:43.053Z,99107.13
2022-10-06T20:20:10.101Z,99109.50
2022-10-06T20:22:36.828Z,99112.84
2022-10-06T20:25:04.603Z,99114.69
2022-10-06T20:27:31.101Z,99110.06
2022-10-06T20:29:58.185Z,99123.56
2022-10-06T20:32:24.977Z,99099.88
2022-10-06T20:34:51.484Z,99103.75
2022-10-06T20:37:17.996Z,99108.88
2022-10-06T20:40:03.224Z,99107.72
2022-10-06T20:42:31.240Z,99097.56
2022-10-06T20:44:58.014Z,99097.72
2022-10-06T20:47:24.517Z,99110.72
2022-10-06T20:49:55.403Z,99109.38
2022-10-06T20:52:23.756Z,99097.56
2022-10-06T20:54:51.256Z,99096.44
2022-10-06T20:57:17.857Z,99096.09
2022-10-06T20:59:47.447Z,99091.34
2022-10-06T21:02:17.530Z,99096.69
2022-10-06T21:04:47.261Z,99101.28
2022-10-06T21:07:14.581Z,99092.59
2022-10-06T21:09:41.114Z,99092.47
2022-10-06T21:12:07.888Z,99054.69
2022-10-06T21:14:35.264Z,99093.84
2022-10-06T21:17:01.944Z,99077.03
2022-10-06T21:19:30.226Z,99089.44
2022-10-06T21:21:56.960Z,99086.97
2022-10-06T21:24:23.554Z,99077.16
2022-10-06T21:26:52.642Z,99079.34
2022-10-06T21:29:19.926Z,99079.03
2022-10-06T21:31:47.202Z,99070.38
2022-10-06T21:34:16.983Z,99066.09
2022-10-06T21:36:44.114Z,99077.94
2022-10-06T21:39:12.168Z,99063.50
2022-10-06T21:41:39.674Z,99079.94
2022-10-06T21:44:11.648Z,99080.47
2022-10-06T21:46:49.115Z,99073.03
2022-10-06T21:49:18.742Z,99080.88
2022-10-06T21:51:48.589Z,99073.22
2022-10-06T21:54:16.183Z,99070.25
2022-10-06T21:56:43.060Z,99049.97
2022-10-06T21:59:10.331Z,99063.63
2022-10-06T22:01:39.605Z,99053.47
2022-10-06T22:04:06.815Z,99064.00
2022-10-06T22:06:35.818Z,99059.66
2022-10-06T22:09:03.636Z,99057.66
2022-10-06T22:11:34.059Z,99058.00
2022-10-06T22:14:02.612Z,99050.31
2022-10-06T22:16:31.441Z,99057.16
2022-10-06T22:18:58.574Z,99042.47
2022-10-06T22:21:28.285Z,99049.44
2022-10-06T22:23:59.319Z,99042.25
2022-10-06T22:26:27.963Z,99047.59
2022-10-06T22:28:57.071Z,99038.41
2022-10-06T22:31:26.233Z,99041.19
2022-10-06T22:33:59.546Z,99041.84
2022-10-06T22:36:27.587Z,99038.16
2022-10-06T22:38:55.199Z,99029.66
2022-10-06T22:41:22.436Z,99020.06
2022-10-06T22:43:51.254Z,99033.53
2022-10-06T22:46:17.837Z,99022.06
2022-10-06T22:48:44.360Z,99025.53
2022-10-06T22:51:10.876Z,99014.53
2022-10-06T22:53:37.363Z,99015.19
2022-10-06T22:56:04.086Z,99025.41
2022-10-06T22:58:31.006Z,99018.16
2022-10-06T23:00:57.644Z,99009.38
2022-10-06T23:03:24.723Z,99023.69
2022-10-06T23:06:01.284Z,99008.06
2022-10-06T23:08:34.210Z,99010.38
2022-10-06T23:11:21.979Z,99013.88
2022-10-06T23:13:52.869Z,99014.25
2022-10-06T23:16:20.469Z,99009.56
2022-10-06T23:18:48.251Z,99000.03
2022-10-06T23:21:24.238Z,99005.50
2022-10-06T23:23:56.575Z,98986.53
2022-10-06T23:26:23.995Z,98986.69
2022-10-06T23:28:54.008Z,98992.03
2022-10-06T23:31:24.708Z,98975.16
2022-10-06T23:33:54.525Z,98976.00
2022-10-06T23:36:23.709Z,98968.03
2022-10-06T23:38:50.301Z,98979.19
2022-10-06T23:41:17.147Z,98988.06
2022-10-06T23:43:43.793Z,98973.47
2022-10-06T23:46:10.531Z,98980.91
2022-10-06T23:48:37.544Z,98976.25
2022-10-06T23:51:09.544Z,98965.25
2022-10-06T23:53:36.355Z,98964.09
2022-10-06T23:56:04.434Z,98968.88
2022-10-06T23:58:30.968Z,98961.56
